Time;durP1;ratioP1;P1;durP2;ratioP2;P2;SDS_P1;SDS_P2;PMS_P1;PMS_P2;Temp;Humidity;BMP_temperature;BMP_pressure;BME280_temperature;BME280_humidity;BME280_pressure;Samples;Min_cycle;Max_cycle;Signal;HPM_P1;HPM_P2
2021/04/21 00:00:38;;;;;;;2.73;2.53;;;;;;;8.74;56.59;100451.66;5109865;28;20286;-76
2021/04/21 00:03:05;;;;;;;2.90;2.67;;;;;;;8.67;56.95;100449.97;5108776;28;20694;-76
2021/04/21 00:05:31;;;;;;;2.93;2.73;;;;;;;8.42;60.35;100451.13;5109224;27;20277;-75
2021/04/21 00:07:58;;;;;;;4.37;3.50;;;;;;;8.37;60.74;100442.47;5109508;28;20259;-76
2021/04/21 00:10:27;;;;;;;5.00;4.60;;;;;;;8.43;61.17;100430.28;5109604;27;20200;-76
2021/04/21 00:12:55;;;;;;;6.07;5.57;;;;;;;8.34;59.32;100439.03;5109505;28;20217;-77
2021/04/21 00:15:23;;;;;;;6.00;5.40;;;;;;;8.46;60.33;100435.47;5108828;28;20232;-76
2021/04/21 00:17:53;;;;;;;6.07;5.57;;;;;;;8.47;61.75;100437.19;5109521;28;20253;-76
2021/04/21 00:20:20;;;;;;;8.93;6.40;;;;;;;8.55;62.57;100430.16;5108602;27;20697;-76
2021/04/21 00:22:52;;;;;;;8.63;6.40;;;;;;;8.49;62.40;100435.44;5108985;28;20211;-76
2021/04/21 00:25:19;;;;;;;6.67;6.17;;;;;;;8.35;63.19;100432.94;5107528;27;20653;-77
2021/04/21 00:27:46;;;;;;;7.67;6.87;;;;;;;8.15;62.86;100427.06;5109404;28;20216;-77
2021/04/21 00:30:15;;;;;;;7.73;6.97;;;;;;;8.19;61.34;100430.53;5109928;27;20197;-76
2021/04/21 00:32:44;;;;;;;6.80;6.13;;;;;;;8.08;62.57;100433.19;5107643;28;20597;-76
2021/04/21 00:35:13;;;;;;;7.60;6.90;;;;;;;8.01;61.53;100434.13;5108610;28;20201;-76
2021/04/21 00:37:41;;;;;;;9.20;7.00;;;;;;;7.99;61.46;100431.56;5109021;28;20204;-76
2021/04/21 00:40:12;;;;;;;8.77;6.97;;;;;;;8.01;61.81;100437.59;5109261;27;20225;-76
2021/04/21 00:42:50;;;;;;;7.03;6.43;;;;;;;8.04;62.06;100427.16;5108302;28;20218;-76
2021/04/21 00:45:17;;;;;;;7.70;7.10;;;;;;;8.01;63.31;100429.81;5108793;28;20214;-76
2021/04/21 00:47:50;;;;;;;7.93;7.23;;;;;;;7.82;65.00;100431.66;5108732;28;20201;-76
2021/04/21 00:50:22;;;;;;;8.10;7.40;;;;;;;7.75;64.19;100430.00;5108319;28;20698;-76
2021/04/21 00:52:49;;;;;;;7.67;6.97;;;;;;;7.77;64.37;100428.28;5108236;28;20772;-76
2021/04/21 00:55:20;;;;;;;7.63;7.03;;;;;;;7.72;64.66;100436.06;5107657;27;20203;-76
2021/04/21 00:57:58;;;;;;;8.00;7.20;;;;;;;7.63;65.28;100430.97;5108922;28;20548;-76
2021/04/21 01:00:27;;;;;;;7.50;6.90;;;;;;;7.69;64.92;100427.44;5109135;27;20212;-76
2021/04/21 01:02:57;;;;;;;8.07;7.37;;;;;;;7.68;64.69;100430.91;5108473;28;20196;-76
2021/04/21 01:05:27;;;;;;;8.13;7.33;;;;;;;7.64;65.06;100427.47;5108292;27;20227;-76
2021/04/21 01:08:00;;;;;;;7.80;7.00;;;;;;;7.60;66.93;100422.31;5108857;28;20207;-76
2021/04/21 01:10:30;;;;;;;7.47;6.87;;;;;;;7.56;66.35;100421.47;5108290;27;20705;-76
2021/04/21 01:13:01;;;;;;;7.90;7.30;;;;;;;7.58;66.97;100422.34;5108183;28;20206;-76
2021/04/21 01:15:28;;;;;;;8.13;7.33;;;;;;;7.51;65.35;100418.03;5108215;28;20241;-76
2021/04/21 01:17:55;;;;;;;6.97;6.37;;;;;;;7.50;64.96;100424.97;5108336;28;20614;-77
2021/04/21 01:20:31;;;;;;;7.60;6.90;;;;;;;7.55;64.33;100422.34;5107936;28;20239;-76
2021/04/21 01:23:31;;;;;;;9.67;7.03;;;;;;;7.63;63.96;100424.88;5107975;28;20219;-76
2021/04/21 01:26:19;;;;;;;9.13;7.30;;;;;;;7.66;63.78;100420.53;5107666;28;20345;-76
2021/04/21 01:28:51;;;;;;;7.30;6.80;;;;;;;7.66;62.38;100427.47;5108428;28;20216;-76
2021/04/21 01:31:19;;;;;;;7.63;6.43;;;;;;;7.74;61.42;100429.13;5107966;28;20754;-76
2021/04/21 01:33:47;;;;;;;6.97;6.30;;;;;;;7.72;61.27;100427.44;5108277;28;20204;-76
2021/04/21 01:36:16;;;;;;;6.83;5.80;;;;;;;7.64;61.90;100426.63;5107679;28;20708;-76
2021/04/21 01:38:44;;;;;;;8.10;6.80;;;;;;;7.51;62.69;100431.91;5107376;28;20208;-76
2021/04/21 01:41:16;;;;;;;6.60;6.10;;;;;;;7.44;62.11;100426.75;5107818;28;20203;-76
2021/04/21 01:43:45;;;;;;;7.37;6.67;;;;;;;7.30;63.84;100425.09;5109293;28;20208;-76
2021/04/21 01:46:15;;;;;;;7.17;6.57;;;;;;;7.19;63.75;100426.03;5111770;27;20215;-76
2021/04/21 01:48:42;;;;;;;12.80;6.60;;;;;;;7.04;63.88;100427.00;5111955;28;20929;-76
2021/04/21 01:51:15;;;;;;;8.07;7.37;;;;;;;6.93;64.59;100427.88;5110895;27;21150;-76
2021/04/21 01:53:48;;;;;;;6.90;6.30;;;;;;;6.87;66.23;100429.63;5112482;28;20206;-75
2021/04/21 01:56:20;;;;;;;7.40;6.73;;;;;;;6.84;65.00;100425.34;5111001;27;20222;-75
2021/04/21 01:58:55;;;;;;;15.40;7.20;;;;;;;6.82;65.81;100421.88;5111638;27;20679;-76
2021/04/21 02:01:33;;;;;;;7.53;6.93;;;;;;;6.75;66.30;100430.53;5112750;27;20195;-76
2021/04/21 02:04:04;;;;;;;7.90;7.20;;;;;;;6.68;66.61;100427.13;5112362;27;20203;-76
2021/04/21 02:06:55;;;;;;;8.07;7.27;;;;;;;6.69;66.47;100426.22;5111316;27;20242;-76
2021/04/21 02:09:55;;;;;;;8.03;7.23;;;;;;;6.59;67.10;100427.13;5112704;28;20564;-76
2021/04/21 02:12:44;;;;;;;7.33;6.63;;;;;;;6.56;67.34;100422.84;5111800;28;20253;-76
2021/04/21 02:15:14;;;;;;;7.63;6.97;;;;;;;6.54;66.89;100421.09;5111128;28;20207;-76
2021/04/21 02:17:49;;;;;;;7.00;6.40;;;;;;;6.60;67.04;100428.88;5111785;28;20561;-76
2021/04/21 02:20:26;;;;;;;8.50;7.40;;;;;;;6.70;66.13;100421.91;5111676;27;20588;-75
2021/04/21 02:23:00;;;;;;;7.50;6.60;;;;;;;6.80;66.00;100422.72;5110863;28;20207;-75
2021/04/21 02:25:38;;;;;;;8.07;7.33;;;;;;;6.73;66.56;100429.69;5110776;27;20224;-76
2021/04/21 02:28:12;;;;;;;7.63;6.53;;;;;;;6.73;65.36;100421.91;5112054;28;20206;-76
2021/04/21 02:30:44;;;;;;;6.93;6.30;;;;;;;6.60;65.85;100421.09;5111358;27;20200;-76
2021/04/21 02:33:19;;;;;;;7.60;6.50;;;;;;;6.49;66.61;100420.25;5111027;28;20207;-76
2021/04/21 02:35:49;;;;;;;8.97;6.77;;;;;;;6.45;66.98;100418.53;5111317;27;20269;-76
2021/04/21 02:38:28;;;;;;;6.87;6.17;;;;;;;6.49;66.09;100421.09;5111390;28;20249;-76
2021/04/21 02:41:06;;;;;;;6.70;6.10;;;;;;;6.60;65.10;100415.03;5110051;27;20207;-76
2021/04/21 02:43:48;;;;;;;6.43;5.83;;;;;;;6.61;64.49;100419.34;5110867;28;20208;-76
2021/04/21 02:46:22;;;;;;;6.70;6.07;;;;;;;6.65;64.72;100423.66;5110889;27;20229;-75
2021/04/21 02:49:01;;;;;;;7.33;6.63;;;;;;;6.61;65.97;100425.41;5111006;28;20643;-76
2021/04/21 02:51:35;;;;;;;11.37;7.17;;;;;;;6.54;65.56;100423.69;5110090;28;20207;-76
2021/04/21 02:54:07;;;;;;;6.40;5.83;;;;;;;6.42;66.20;100440.16;5111617;27;20200;-76
2021/04/21 02:56:39;;;;;;;6.53;5.93;;;;;;;6.43;65.86;100438.41;5109367;28;20224;-76
2021/04/21 02:59:13;;;;;;;6.73;6.17;;;;;;;6.40;65.23;100435.81;5110866;27;20228;-76
2021/04/21 03:01:45;;;;;;;6.67;5.80;;;;;;;6.36;67.22;100446.22;5110380;27;20211;-76
2021/04/21 03:04:18;;;;;;;10.47;6.53;;;;;;;6.41;66.71;100432.38;5110483;28;20686;-76
2021/04/21 03:06:49;;;;;;;6.37;5.87;;;;;;;6.31;66.46;100432.38;5110457;27;20227;-76
2021/04/21 03:09:18;;;;;;;7.67;6.67;;;;;;;6.23;65.91;100434.13;5111268;28;20196;-76
2021/04/21 03:11:46;;;;;;;6.17;5.53;;;;;;;6.25;66.23;100429.81;5110541;28;20208;-76
2021/04/21 03:14:17;;;;;;;6.23;5.73;;;;;;;6.21;66.82;100429.81;5110201;28;20223;-76
2021/04/21 03:16:47;;;;;;;8.23;6.07;;;;;;;6.16;66.76;100429.81;5109897;27;20232;-76
2021/04/21 03:19:18;;;;;;;6.43;5.90;;;;;;;6.06;67.35;100431.53;5110650;28;20215;-76
2021/04/21 03:21:48;;;;;;;6.60;6.00;;;;;;;6.02;66.33;100426.38;5110227;28;20276;-76
2021/04/21 03:24:17;;;;;;;6.90;6.40;;;;;;;5.99;66.67;100432.44;5110451;27;20191;-76
2021/04/21 03:26:47;;;;;;;6.67;6.07;;;;;;;6.00;66.34;100423.78;5108996;28;20219;-76
2021/04/21 03:29:17;;;;;;;7.10;4.93;;;;;;;5.96;64.75;100428.09;5110675;28;20207;-76
2021/04/21 03:31:46;;;;;;;6.10;5.60;;;;;;;5.89;66.82;100420.31;5110129;27;20209;-76
2021/04/21 03:34:17;;;;;;;6.10;5.60;;;;;;;6.01;66.40;100427.25;5110103;28;20208;-76
2021/04/21 03:36:44;;;;;;;5.73;5.20;;;;;;;5.95;64.95;100421.19;5109762;27;20229;-76
2021/04/21 03:39:11;;;;;;;6.80;5.00;;;;;;;5.88;65.65;100418.56;5110396;28;20223;-76
2021/04/21 03:41:37;;;;;;;5.67;4.90;;;;;;;5.80;67.58;100421.16;5109863;27;20211;-77
2021/04/21 03:44:04;;;;;;;6.93;5.33;;;;;;;5.76;66.14;100409.06;5108814;28;21243;-76
2021/04/21 03:46:31;;;;;;;5.50;4.90;;;;;;;5.81;66.69;100417.72;5109527;28;20246;-76
2021/04/21 03:48:59;;;;;;;7.33;5.10;;;;;;;5.95;65.31;100412.56;5110136;28;20619;-76
2021/04/21 03:51:27;;;;;;;6.83;5.20;;;;;;;6.02;66.16;100419.44;5108643;28;20830;-76
2021/04/21 03:53:54;;;;;;;5.70;5.10;;;;;;;5.89;66.12;100403.03;5109643;27;20204;-76
2021/04/21 03:56:24;;;;;;;6.03;5.40;;;;;;;5.70;67.45;100403.88;5109241;28;20230;-76
2021/04/21 03:58:52;;;;;;;6.20;4.70;;;;;;;5.66;66.74;100400.44;5110367;27;20201;-76
2021/04/21 04:01:20;;;;;;;6.83;5.43;;;;;;;5.53;69.45;100396.09;5109618;27;20211;-76
2021/04/21 04:03:50;;;;;;;5.27;4.77;;;;;;;5.70;66.16;100398.72;5109474;27;20203;-76
2021/04/21 04:06:21;;;;;;;5.37;4.80;;;;;;;5.80;65.78;100405.63;5109338;28;20224;-76
2021/04/21 04:08:50;;;;;;;5.47;4.67;;;;;;;5.85;65.85;100400.44;5110127;28;20212;-76
2021/04/21 04:11:19;;;;;;;5.33;3.90;;;;;;;5.97;64.86;100397.88;5108687;27;20199;-76
2021/04/21 04:13:47;;;;;;;5.97;4.40;;;;;;;6.22;62.74;100406.47;5109300;27;20238;-76
2021/04/21 04:16:14;;;;;;;5.23;4.60;;;;;;;6.10;64.24;100404.75;5108821;28;20230;-76
2021/04/21 04:18:41;;;;;;;5.63;4.50;;;;;;;6.16;63.21;100398.72;5109584;27;20209;-76
2021/04/21 04:21:09;;;;;;;6.93;5.00;;;;;;;6.32;62.52;100404.72;5108250;28;20208;-76
2021/04/21 04:23:38;;;;;;;6.60;4.90;;;;;;;6.31;63.28;100395.25;5109323;28;20205;-76
2021/04/21 04:26:06;;;;;;;6.53;4.80;;;;;;;6.35;63.08;100410.78;5108650;27;20216;-75
2021/04/21 04:28:33;;;;;;;4.83;4.40;;;;;;;6.36;62.16;100404.72;5109277;28;20628;-76
2021/04/21 04:31:00;;;;;;;5.17;4.53;;;;;;;6.38;63.56;100402.13;5109356;27;20315;-76
2021/04/21 04:33:26;;;;;;;6.10;4.10;;;;;;;6.30;63.50;100406.47;5109235;28;20204;-76
2021/04/21 04:35:52;;;;;;;6.23;4.47;;;;;;;6.33;63.61;100406.47;5109397;27;20222;-76
2021/04/21 04:38:18;;;;;;;5.20;4.80;;;;;;;6.38;62.00;100414.22;5109007;27;20200;-76
2021/04/21 04:40:45;;;;;;;5.30;4.80;;;;;;;6.43;62.94;100417.69;5108531;28;20196;-76
2021/04/21 04:43:13;;;;;;;4.40;4.00;;;;;;;6.45;61.36;100409.03;5108432;28;20298;-76
2021/04/21 04:45:41;;;;;;;5.37;4.87;;;;;;;6.43;66.20;100417.69;5107701;28;20574;-76
2021/04/21 04:48:14;;;;;;;4.43;3.70;;;;;;;6.45;61.28;100415.94;5108695;28;20753;-76
2021/04/21 04:50:42;;;;;;;5.43;4.23;;;;;;;6.51;62.02;100416.78;5108440;28;20300;-76
2021/04/21 04:53:08;;;;;;;5.70;4.10;;;;;;;6.57;61.65;100428.88;5108808;28;20260;-76
2021/04/21 04:55:36;;;;;;;4.47;4.07;;;;;;;6.63;59.66;100425.41;5108991;28;20233;-76
2021/04/21 04:58:04;;;;;;;4.73;4.27;;;;;;;6.59;63.59;100424.53;5107969;28;20200;-76
2021/04/21 05:00:33;;;;;;;6.73;4.10;;;;;;;6.62;61.63;100428.84;5108218;27;20206;-76
2021/04/21 05:03:06;;;;;;;5.40;4.80;;;;;;;6.68;59.69;100426.22;5108415;28;20657;-76
2021/04/21 05:05:35;;;;;;;4.47;4.07;;;;;;;6.71;59.66;100426.25;5107968;28;20238;-76
2021/04/21 05:08:05;;;;;;;4.17;3.67;;;;;;;6.75;60.53;100428.81;5108225;28;20199;-76
2021/04/21 05:10:37;;;;;;;4.80;4.20;;;;;;;6.78;60.35;100429.66;5108099;28;20211;-76
2021/04/21 05:13:04;;;;;;;6.00;4.37;;;;;;;6.78;61.95;100437.44;5108266;28;20287;-76
2021/04/21 05:16:15;;;;;;;5.23;4.47;;;;;;;6.84;63.33;100429.63;5107356;27;20236;-76
2021/04/21 05:19:19;;;;;;;4.73;4.33;;;;;;;6.96;64.60;100440.84;5107197;28;20200;-76
2021/04/21 05:22:35;;;;;;;5.60;5.07;;;;;;;6.86;63.51;100440.91;5107686;28;20208;-76
2021/04/21 05:25:38;;;;;;;5.80;5.37;;;;;;;6.41;64.34;100447.94;5045735;28;20203;-76
2021/04/21 05:28:29;;;;;;;7.90;6.47;;;;;;;5.77;67.14;100453.09;5108591;28;20836;-76
2021/04/21 05:31:28;;;;;;;8.50;6.40;;;;;;;5.56;67.99;100446.16;5107457;28;20571;-76
2021/04/21 05:34:40;;;;;;;7.80;7.03;;;;;;;5.46;68.84;100440.97;5108059;28;20673;-76
2021/04/21 05:37:57;;;;;;;7.03;6.43;;;;;;;5.49;69.87;100444.44;5108049;28;20219;-76
2021/04/21 05:40:53;;;;;;;7.40;6.47;;;;;;;5.55;69.65;100441.88;5107797;28;20203;-76
2021/04/21 05:44:07;;;;;;;7.77;7.00;;;;;;;5.67;70.30;100450.50;5107825;28;20203;-76
2021/04/21 05:47:12;;;;;;;7.27;6.77;;;;;;;5.72;70.60;100448.78;5107132;28;20231;-76
2021/04/21 05:50:23;;;;;;;9.03;7.43;;;;;;;5.76;70.82;100446.19;5107732;28;20588;-76
2021/04/21 05:53:19;;;;;;;7.13;6.53;;;;;;;5.69;71.14;100441.88;5107310;28;20683;-76
2021/04/21 05:56:15;;;;;;;10.30;7.60;;;;;;;5.75;70.94;100451.38;5107922;28;20594;-76
2021/04/21 05:59:04;;;;;;;8.60;7.70;;;;;;;5.81;71.63;100442.72;5108456;28;20203;-76
2021/04/21 06:01:32;;;;;;;8.40;7.60;;;;;;;5.85;71.92;100442.75;5107118;28;20210;-76
2021/04/21 06:03:59;;;;;;;7.43;6.83;;;;;;;5.97;70.40;100445.38;5107153;28;20208;-76
2021/04/21 06:06:26;;;;;;;7.77;7.03;;;;;;;5.94;71.49;100445.31;5107465;28;20253;-76
2021/04/21 06:08:52;;;;;;;7.50;6.90;;;;;;;6.07;71.00;100447.97;5108221;28;20230;-76
2021/04/21 06:11:24;;;;;;;8.80;7.23;;;;;;;6.18;71.37;100455.72;5106623;28;20220;-76
2021/04/21 06:13:53;;;;;;;7.80;6.07;;;;;;;6.34;69.51;100444.47;5107882;28;20276;-75
2021/04/21 06:16:19;;;;;;;6.97;6.37;;;;;;;6.55;70.16;100453.94;5107309;28;20235;-74
2021/04/21 06:18:52;;;;;;;6.87;6.27;;;;;;;6.67;70.52;100453.06;5106116;28;20618;-74
2021/04/21 06:21:19;;;;;;;8.87;7.53;;;;;;;6.62;71.44;100457.38;5106323;28;20564;-74
2021/04/21 06:23:45;;;;;;;8.13;7.40;;;;;;;6.60;71.77;100454.81;5107181;28;20192;-74
2021/04/21 06:26:11;;;;;;;9.07;8.17;;;;;;;6.45;72.74;100460.88;5106169;28;20228;-73
2021/04/21 06:28:38;;;;;;;8.53;7.77;;;;;;;6.46;74.33;100462.63;5106949;28;20219;-73
2021/04/21 06:31:07;;;;;;;9.77;8.00;;;;;;;6.48;74.78;100463.47;5110126;27;20227;-74
2021/04/21 06:33:35;;;;;;;9.37;7.73;;;;;;;6.50;74.83;100456.56;5110671;28;20249;-73
2021/04/21 06:36:01;;;;;;;9.33;8.43;;;;;;;6.60;75.61;100461.72;5111192;27;20225;-73
2021/04/21 06:38:28;;;;;;;9.03;7.80;;;;;;;6.74;75.58;100459.97;5111016;28;20216;-74
2021/04/21 06:40:55;;;;;;;9.27;8.47;;;;;;;6.92;75.49;100451.25;5110145;27;20263;-74
2021/04/21 06:43:24;;;;;;;8.67;7.80;;;;;;;7.08;73.74;100465.88;5111623;27;20256;-73
2021/04/21 06:45:52;;;;;;;12.13;7.90;;;;;;;7.21;74.09;100458.88;5109482;27;20234;-74
2021/04/21 06:48:27;;;;;;;8.93;8.17;;;;;;;7.35;73.46;100458.81;5110721;28;20204;-74
2021/04/21 06:50:53;;;;;;;9.20;7.80;;;;;;;7.50;74.05;100455.28;5109706;28;20212;-74
2021/04/21 06:53:28;;;;;;;7.77;6.90;;;;;;;7.67;72.61;100461.25;5110052;28;20208;-74
2021/04/21 06:55:56;;;;;;;11.80;7.03;;;;;;;7.81;70.34;100460.25;5109435;27;20225;-73
2021/04/21 06:58:22;;;;;;;7.60;6.70;;;;;;;7.93;68.91;100455.00;5111170;28;20207;-73
2021/04/21 07:00:48;;;;;;;8.57;7.13;;;;;;;8.03;68.14;100463.59;5111458;28;20570;-73
2021/04/21 07:03:17;;;;;;;7.60;7.00;;;;;;;8.14;68.81;100467.78;5110001;28;20206;-74
2021/04/21 07:05:45;;;;;;;8.53;6.67;;;;;;;8.31;67.98;100472.00;5110055;27;20224;-73
2021/04/21 07:08:15;;;;;;;8.00;7.20;;;;;;;8.39;67.80;100469.34;5110216;28;20211;-73
2021/04/21 07:10:46;;;;;;;7.23;6.57;;;;;;;8.51;67.21;100466.66;5109922;28;20226;-73
2021/04/21 07:13:18;;;;;;;7.13;6.53;;;;;;;8.68;67.68;100469.94;5108245;28;20261;-74
2021/04/21 07:15:44;;;;;;;6.43;5.87;;;;;;;8.81;66.79;100464.59;5109267;27;20256;-73
2021/04/21 07:18:15;;;;;;;6.43;5.83;;;;;;;8.93;65.14;100460.09;5110587;28;20213;-73
2021/04/21 07:20:42;;;;;;;7.07;6.30;;;;;;;9.04;64.12;100457.38;5108968;28;20196;-73
2021/04/21 07:23:10;;;;;;;6.57;6.07;;;;;;;9.09;64.48;100463.38;5110111;28;20674;-77
2021/04/21 07:25:38;;;;;;;6.53;5.93;;;;;;;9.18;65.69;100452.00;5114570;28;20306;-78
2021/04/21 07:28:05;;;;;;;6.57;5.43;;;;;;;9.30;64.05;100459.63;5112142;28;20268;-78
2021/04/21 07:30:32;;;;;;;7.30;5.37;;;;;;;9.40;60.99;100456.91;5114785;27;20239;-81
2021/04/21 07:32:59;;;;;;;5.23;4.83;;;;;;;9.49;58.12;100464.59;5113377;28;20244;-79
2021/04/21 07:35:28;;;;;;;5.17;4.57;;;;;;;9.62;57.01;100460.06;5112514;27;20232;-76
2021/04/21 07:37:56;;;;;;;5.87;5.27;;;;;;;9.77;56.74;100461.56;5109114;28;20199;-76
2021/04/21 07:40:25;;;;;;;7.70;5.80;;;;;;;9.82;56.72;100468.44;5108699;27;20722;-75
2021/04/21 07:42:52;;;;;;;6.80;5.63;;;;;;;9.93;55.71;100460.47;5108927;28;20753;-76
2021/04/21 07:45:21;;;;;;;5.70;4.83;;;;;;;9.96;55.36;100455.19;5109356;28;20659;-76
2021/04/21 07:47:47;;;;;;;5.93;5.33;;;;;;;10.04;56.17;100457.69;5110005;28;20205;-75
2021/04/21 07:50:13;;;;;;;7.40;6.50;;;;;;;10.15;57.01;100466.19;5110632;28;20229;-75
2021/04/21 07:52:39;;;;;;;6.77;6.17;;;;;;;10.20;57.67;100466.97;5109926;28;20219;-75
2021/04/21 07:55:08;;;;;;;10.67;6.27;;;;;;;10.26;58.82;100458.16;5110088;28;20229;-75
2021/04/21 07:57:35;;;;;;;6.67;6.07;;;;;;;10.33;56.81;100463.28;5109948;28;20569;-76
2021/04/21 08:00:01;;;;;;;9.67;6.53;;;;;;;10.46;57.26;100466.53;5111123;27;20215;-78
2021/04/21 08:02:30;;;;;;;6.60;6.00;;;;;;;10.57;57.49;100473.34;5110570;28;20240;-75
2021/04/21 08:04:59;;;;;;;10.00;6.83;;;;;;;10.68;57.97;100467.03;5112590;27;20242;-83
2021/04/21 08:07:38;;;;;;;6.93;6.13;;;;;;;10.77;57.97;100463.34;5111912;28;20228;-79
2021/04/21 08:10:22;;;;;;;8.13;6.90;;;;;;;10.91;58.57;100463.94;5110265;27;20959;-82
2021/04/21 08:12:49;;;;;;;8.63;7.03;;;;;;;11.03;59.21;100473.28;5108774;28;20707;-78
2021/04/21 08:15:16;;;;;;;7.47;6.73;;;;;;;11.06;57.83;100468.00;5111339;27;20213;-78
2021/04/21 08:17:53;;;;;;;7.13;6.53;;;;;;;11.20;56.12;100459.88;5110640;28;20197;-79
2021/04/21 08:20:24;;;;;;;7.50;6.77;;;;;;;11.32;54.78;100474.44;5106492;27;20206;-75
2021/04/21 08:22:55;;;;;;;8.47;6.93;;;;;;;11.41;54.90;100463.78;5108944;28;20205;-75
2021/04/21 08:25:22;;;;;;;7.83;6.87;;;;;;;11.49;52.41;100474.06;5107757;28;20568;-74
2021/04/21 08:27:48;;;;;;;7.30;6.60;;;;;;;11.50;51.14;100467.97;5108452;28;20582;-74
2021/04/21 08:30:15;;;;;;;8.43;7.63;;;;;;;11.68;52.58;100462.28;5108689;27;20217;-76
2021/04/21 08:32:41;;;;;;;8.33;7.60;;;;;;;11.74;51.07;100466.53;5108095;28;20668;-77
2021/04/21 08:35:09;;;;;;;8.33;7.63;;;;;;;11.80;50.67;100468.16;5109066;27;20266;-74
2021/04/21 08:37:35;;;;;;;8.90;8.13;;;;;;;11.82;51.23;100472.44;5107551;28;20211;-74
2021/04/21 08:40:01;;;;;;;8.87;8.07;;;;;;;11.85;51.88;100469.75;5108716;27;20202;-74
2021/04/21 08:42:30;;;;;;;8.80;7.90;;;;;;;11.97;50.86;100470.38;5107547;28;20295;-74
2021/04/21 08:44:57;;;;;;;7.90;7.13;;;;;;;11.98;48.42;100464.25;5107918;27;20674;-74
2021/04/21 08:47:25;;;;;;;8.27;7.47;;;;;;;12.06;50.54;100476.25;5107277;28;20251;-75
2021/04/21 08:49:54;;;;;;;9.43;7.83;;;;;;;12.07;50.52;100477.09;5107234;28;20770;-75
2021/04/21 08:52:23;;;;;;;10.00;7.73;;;;;;;12.15;50.60;100474.28;5106042;28;20201;-75
2021/04/21 08:54:53;;;;;;;11.33;8.10;;;;;;;12.20;51.14;100475.06;5107079;28;20253;-74
2021/04/21 08:57:19;;;;;;;10.90;7.17;;;;;;;12.30;48.66;100479.16;5107648;28;20698;-74
2021/04/21 08:59:47;;;;;;;7.87;6.80;;;;;;;12.38;48.03;100473.72;5108743;27;20573;-74
2021/04/21 09:02:15;;;;;;;10.10;6.70;;;;;;;12.38;47.56;100474.56;5107622;27;20285;-76
2021/04/21 09:04:41;;;;;;;8.37;6.73;;;;;;;12.49;48.75;100474.31;5108220;28;20224;-75
2021/04/21 09:07:08;;;;;;;7.53;5.97;;;;;;;12.57;46.77;100476.72;5106376;28;20231;-77
2021/04/21 09:09:34;;;;;;;6.43;5.83;;;;;;;12.70;46.14;100472.88;5106615;28;20224;-75
2021/04/21 09:12:01;;;;;;;6.30;5.80;;;;;;;12.79;46.90;100474.38;5107122;28;21010;-74
2021/04/21 09:14:27;;;;;;;8.37;5.70;;;;;;;12.89;45.82;100474.09;5107524;28;21554;-74
2021/04/21 09:16:53;;;;;;;6.87;6.23;;;;;;;12.96;45.61;100466.91;5106871;28;20229;-74
2021/04/21 09:19:19;;;;;;;6.70;5.73;;;;;;;12.96;44.67;100466.03;5108018;28;20195;-75
2021/04/21 09:21:45;;;;;;;6.30;5.60;;;;;;;12.96;43.89;100474.75;5107463;27;20290;-74
2021/04/21 09:24:24;;;;;;;11.03;5.87;;;;;;;12.99;42.44;100476.44;5107688;27;20264;-75
2021/04/21 09:26:50;;;;;;;5.50;5.03;;;;;;;13.07;43.54;100477.94;5106737;28;21083;-75
2021/04/21 09:29:24;;;;;;;6.77;4.97;;;;;;;13.19;42.73;100474.09;5108766;28;20202;-74
2021/04/21 09:32:05;;;;;;;5.53;5.00;;;;;;;13.22;40.95;100474.03;5107455;28;20213;-74
2021/04/21 09:34:32;;;;;;;5.03;4.60;;;;;;;13.41;42.35;100463.88;5108021;28;20203;-75
2021/04/21 09:36:57;;;;;;;7.20;4.50;;;;;;;13.43;39.22;100469.94;5107109;28;20237;-74
2021/04/21 09:39:24;;;;;;;4.57;4.17;;;;;;;13.54;41.58;100460.88;5108457;28;20722;-75
2021/04/21 09:41:59;;;;;;;5.33;4.70;;;;;;;13.56;40.83;100459.94;5106863;28;20206;-74
2021/04/21 09:44:28;;;;;;;7.17;4.87;;;;;;;13.59;41.53;100458.97;5108208;28;20304;-74
2021/04/21 09:46:55;;;;;;;4.13;3.80;;;;;;;13.64;39.54;100459.69;5107218;28;20737;-74
2021/04/21 09:49:33;;;;;;;3.63;3.33;;;;;;;13.70;38.51;100462.13;5108608;28;20206;-73
2021/04/21 09:52:02;;;;;;;4.20;3.40;;;;;;;13.68;37.17;100462.16;5106894;28;20207;-73
2021/04/21 09:54:32;;;;;;;4.67;4.17;;;;;;;13.69;37.62;100461.25;5107922;28;20676;-72
2021/04/21 09:57:09;;;;;;;4.40;4.00;;;;;;;13.75;36.81;100461.97;5106855;28;20232;-75
2021/04/21 09:59:36;;;;;;;4.50;4.10;;;;;;;13.61;36.15;100455.38;5108174;28;20672;-73
2021/04/21 10:02:02;;;;;;;4.30;3.90;;;;;;;13.68;37.42;100453.44;5106345;28;20213;-73
2021/04/21 10:04:29;;;;;;;3.30;3.00;;;;;;;13.97;37.50;100459.50;5108715;28;20216;-72
2021/04/21 10:06:58;;;;;;;5.87;2.70;;;;;;;14.08;33.95;100454.78;5109277;28;20263;-74
2021/04/21 10:09:28;;;;;;;3.63;3.33;;;;;;;14.13;34.21;100457.25;5111608;28;20243;-73
2021/04/21 10:12:13;;;;;;;2.83;2.63;;;;;;;14.20;34.66;100458.75;5110409;27;20213;-72
2021/04/21 10:14:40;;;;;;;3.07;2.77;;;;;;;14.16;32.71;100454.53;5111145;28;20675;-73
2021/04/21 10:17:06;;;;;;;3.57;3.27;;;;;;;14.25;36.39;100457.69;5110931;28;20267;-74
2021/04/21 10:19:33;;;;;;;3.47;2.87;;;;;;;14.37;34.63;100463.41;5110296;28;20207;-73
2021/04/21 10:22:01;;;;;;;3.13;2.70;;;;;;;14.35;34.26;100452.13;5110690;27;20250;-75
2021/04/21 10:24:27;;;;;;;4.17;3.30;;;;;;;14.45;34.67;100459.63;5111774;28;20210;-72
2021/04/21 10:26:54;;;;;;;6.50;3.43;;;;;;;14.46;34.37;100458.72;5110039;28;20223;-72
2021/04/21 10:29:22;;;;;;;5.27;4.23;;;;;;;14.52;35.31;100456.78;5111555;27;20207;-75
2021/04/21 10:31:48;;;;;;;8.37;3.43;;;;;;;14.61;35.44;100460.00;5110379;27;20327;-75
2021/04/21 10:34:15;;;;;;;3.63;3.33;;;;;;;14.63;35.50;100450.28;5112649;27;20199;-79
2021/04/21 10:36:42;;;;;;;4.93;3.87;;;;;;;14.64;35.34;100459.88;5112741;27;20230;-76
2021/04/21 10:39:10;;;;;;;6.10;3.57;;;;;;;14.63;34.91;100449.44;5112509;27;20327;-79
2021/04/21 10:41:38;;;;;;;5.17;3.57;;;;;;;14.72;36.34;100453.50;5112290;28;20666;-74
2021/04/21 10:44:09;;;;;;;4.93;3.40;;;;;;;14.83;37.04;100452.19;5109916;28;20217;-74
2021/04/21 10:47:07;;;;;;;6.50;3.63;;;;;;;14.92;35.74;100455.41;5109469;28;20590;-74
2021/04/21 10:49:56;;;;;;;5.13;3.70;;;;;;;14.95;37.00;100460.56;5110258;28;20298;-75
2021/04/21 10:52:33;;;;;;;4.00;3.60;;;;;;;15.04;36.52;100449.69;5105811;28;20203;-74
2021/04/21 10:55:22;;;;;;;4.60;4.20;;;;;;;14.91;34.06;100459.81;5110927;27;20579;-75
2021/04/21 10:57:56;;;;;;;4.67;3.87;;;;;;;15.04;35.13;100452.31;5110625;28;20253;-74
2021/04/21 11:00:26;;;;;;;3.57;3.23;;;;;;;15.16;34.70;100451.00;5110174;28;20196;-74
2021/04/21 11:02:58;;;;;;;3.10;2.80;;;;;;;15.19;32.45;100446.47;5110575;28;20275;-75
2021/04/21 11:05:29;;;;;;;3.30;2.70;;;;;;;15.40;33.97;100451.81;5110792;27;20207;-76
2021/04/21 11:08:00;;;;;;;4.43;2.93;;;;;;;15.58;34.68;100443.22;5110232;28;20207;-75
2021/04/21 11:10:41;;;;;;;5.20;3.30;;;;;;;15.78;33.85;100444.25;5109202;27;20224;-75
2021/04/21 11:13:08;;;;;;;6.83;3.27;;;;;;;15.66;34.06;100449.03;5109819;28;20342;-75
2021/04/21 11:15:37;;;;;;;4.20;3.90;;;;;;;15.41;32.21;100449.13;5109188;27;20232;-76
2021/04/21 11:18:26;;;;;;;3.60;3.20;;;;;;;15.57;33.65;100446.75;5110209;28;20240;-75
2021/04/21 11:20:58;;;;;;;4.80;3.43;;;;;;;15.75;34.78;100447.84;5109860;28;20191;-75
2021/04/21 11:23:54;;;;;;;4.03;3.37;;;;;;;16.06;33.35;100457.97;5110689;27;20204;-75
2021/04/21 11:26:41;;;;;;;4.27;3.87;;;;;;;16.19;32.22;100445.13;5110140;27;20280;-75
2021/04/21 11:29:11;;;;;;;4.23;3.83;;;;;;;15.98;33.13;100446.91;5111141;27;20207;-75
2021/04/21 11:32:12;;;;;;;4.33;3.93;;;;;;;16.86;31.59;100448.44;5109752;27;20765;-74
2021/04/21 11:34:39;;;;;;;4.13;3.73;;;;;;;18.19;29.94;100435.94;5110419;27;20208;-76
2021/04/21 11:37:11;;;;;;;3.83;3.53;;;;;;;18.45;28.93;100441.69;5109656;27;20702;-76
2021/04/21 11:40:02;;;;;;;3.53;3.23;;;;;;;18.47;28.16;100442.47;5110423;27;20217;-75
2021/04/21 11:42:41;;;;;;;4.50;3.73;;;;;;;20.17;26.89;100429.59;5108255;28;20209;-77
2021/04/21 11:45:18;;;;;;;3.70;3.40;;;;;;;20.17;26.07;100429.59;5110053;27;20290;-76
2021/04/21 11:47:46;;;;;;;7.70;4.23;;;;;;;20.36;25.95;100433.81;5108953;28;20217;-76
2021/04/21 11:50:21;;;;;;;4.17;3.87;;;;;;;20.58;25.98;100430.72;5109005;27;21238;-77
2021/04/21 11:52:53;;;;;;;4.57;3.70;;;;;;;20.90;24.76;100428.75;5108150;28;20191;-76